Riverside, MI (49084)

11:05 AM EDT on August 27, 2016 (GMT -0400)
Coloma lakefront | | Change Station

Elev 653 ft 42.21 °N, 86.39 °W | Updated 6 seconds ago

Light Rain
Light Rain
69.6 °F
Feels Like 69.6 °F
N
0.0
Wind Variable Wind from South
Gusts 0.0 mph

Today
High -- | Low -- °F
--% Chance of Precip.
Yesterday
High -- | Low -- °F
Precip. -- in
Pressure 30.08 in
Visibility 8.0 miles
Clouds Few 2200 ft
Scattered Clouds 8500 ft
Mostly Cloudy 11000 ft
Dew Point 69 °F
Humidity 98%
Rainfall 1.44 in
Snow Depth Not available.
7:06 AM 8:26 PM
Waning Crescent, 24% visible
METAR KBEH 271453Z AUTO 10007KT 8SM -RA FEW022 SCT085 BKN110 22/20 A3008 RMK AO2 RAB03 SLP184 P0005 60093 T02170200 58010 $
Pressure 30.08 in
Visibility 8.0 miles
Clouds Few 2200 ft
Scattered Clouds 8500 ft
Mostly Cloudy 11000 ft
Dew Point 69 °F
Humidity 98%
Rainfall 1.44 in
Snow Depth Not available.
7:06 AM 8:26 PM
Waning Crescent, 24% visible
METAR KBEH 271453Z AUTO 10007KT 8SM -RA FEW022 SCT085 BKN110 22/20 A3008 RMK AO2 RAB03 SLP184 P0005 60093 T02170200 58010 $

10-Day Weather Forecast

Almanac

Astronomy

Aug. 27, 2016 Rise Set
Actual Time
Civil Twilight
Nautical Twilight
Astronomical Twilight
Moon
Length of Visible Light
Length of Day
Tomorrow will be .
, % of the Moon is Illuminated

Today's Extremes

State Highs State Lows

Community

WunderPhotos

Upload Photos

1,935,354 photos uploaded!

WunderBlog® & News

Nearby

Air Quality

  Air Quality AQ Index Pollutant
Not available.

Snow Depth

Station Depth Elevation

Earthquake Activity

City Distance Mag. Time & Date
Minimum magnitude displayed is 2.5.

Coastal Water Temperatures

Place Temperature

Stations

Nearby Weather Stations

Station Location Temp. Windchill Dew Point Humidity Wind Precip. Elev Updated Type
                   

Watches & Warnings

There are currently no watches in effect.